Time;durP1;ratioP1;P1;durP2;ratioP2;P2;SDS_P1;SDS_P2;PMS_P1;PMS_P2;Temp;Humidity;BMP_temperature;BMP_pressure;BME280_temperature;BME280_humidity;BME280_pressure;Samples;Min_cycle;Max_cycle;Signal;HPM_P1;HPM_P2
2020/12/27 00:00:52;;;;;;;10.60;6.90;;;6.70;99.90;;;;;;5055752;28;37789;-74
2020/12/27 00:03:18;;;;;;;7.60;6.80;;;6.70;99.90;;;;;;5052183;28;38103;-74
2020/12/27 00:05:44;;;;;;;9.47;7.13;;;6.70;99.90;;;;;;5059536;28;37746;-75
2020/12/27 00:08:11;;;;;;;8.90;7.50;;;6.70;99.90;;;;;;5052338;28;37666;-75
2020/12/27 00:10:37;;;;;;;10.53;8.37;;;6.60;99.90;;;;;;5059260;28;40304;-75
2020/12/27 00:13:04;;;;;;;10.17;8.47;;;6.50;99.90;;;;;;5073293;28;39768;-74
2020/12/27 00:15:30;;;;;;;10.83;8.07;;;6.50;99.90;;;;;;5061446;28;38545;-74
2020/12/27 00:17:56;;;;;;;9.83;8.40;;;6.50;99.90;;;;;;5078729;28;39113;-75
2020/12/27 00:20:22;;;;;;;11.00;8.67;;;6.50;99.90;;;;;;5064394;28;39548;-75
2020/12/27 00:22:49;;;;;;;9.13;7.87;;;6.50;99.90;;;;;;5070427;28;36864;-74
2020/12/27 00:25:15;;;;;;;11.30;8.60;;;6.50;99.90;;;;;;5074144;27;37254;-74
2020/12/27 00:27:41;;;;;;;13.57;8.70;;;6.50;99.90;;;;;;5064405;28;39693;-75
2020/12/27 00:30:07;;;;;;;14.57;10.30;;;6.50;99.90;;;;;;5057665;28;39167;-76
2020/12/27 00:32:33;;;;;;;15.73;12.00;;;6.50;99.90;;;;;;5058260;28;38346;-75
2020/12/27 00:34:59;;;;;;;19.27;12.30;;;6.40;99.90;;;;;;5055029;28;37567;-75
2020/12/27 00:37:29;;;;;;;23.47;15.67;;;6.40;99.90;;;;;;5059960;28;38755;-75
2020/12/27 00:39:56;;;;;;;13.83;11.57;;;6.40;99.90;;;;;;5061552;28;38755;-73
2020/12/27 00:42:22;;;;;;;18.97;14.47;;;6.40;99.90;;;;;;5057167;28;40297;-75
2020/12/27 00:44:48;;;;;;;23.33;16.13;;;6.40;99.90;;;;;;5067776;28;38422;-73
2020/12/27 00:47:14;;;;;;;32.47;23.90;;;6.40;99.90;;;;;;5056817;27;41444;-74
2020/12/27 00:49:40;;;;;;;16.33;11.23;;;6.40;99.90;;;;;;5054053;28;39473;-75
2020/12/27 00:52:06;;;;;;;25.37;14.87;;;6.40;99.90;;;;;;5056040;28;38554;-75
2020/12/27 00:54:32;;;;;;;13.10;9.80;;;6.40;99.90;;;;;;5058548;28;38410;-75
2020/12/27 00:56:58;;;;;;;16.50;9.43;;;6.40;99.90;;;;;;5077275;28;40345;-75
2020/12/27 00:59:25;;;;;;;14.97;9.40;;;6.40;99.90;;;;;;5053639;28;39085;-76
2020/12/27 01:01:54;;;;;;;10.77;8.93;;;6.40;99.90;;;;;;5056388;28;39118;-75
2020/12/27 01:04:21;;;;;;;12.97;9.20;;;6.40;99.90;;;;;;5066173;28;39235;-75
2020/12/27 01:06:48;;;;;;;12.73;8.40;;;6.50;99.90;;;;;;5061182;28;40215;-75
2020/12/27 01:09:15;;;;;;;14.67;9.17;;;6.50;99.90;;;;;;5062757;28;39271;-74
2020/12/27 01:11:43;;;;;;;12.07;8.87;;;6.50;99.90;;;;;;5083288;28;38880;-75
2020/12/27 01:14:10;;;;;;;11.37;8.87;;;6.50;99.90;;;;;;5059392;28;37724;-74
2020/12/27 01:16:36;;;;;;;14.07;9.00;;;6.50;99.90;;;;;;5058764;28;40040;-75
2020/12/27 01:19:02;;;;;;;17.80;9.93;;;6.50;99.90;;;;;;5059972;28;37859;-74
2020/12/27 01:21:30;;;;;;;14.47;10.60;;;6.50;99.90;;;;;;5068221;28;39177;-77
2020/12/27 01:23:57;;;;;;;14.83;10.87;;;6.30;99.90;;;;;;5060223;28;38485;-75
2020/12/27 01:26:31;;;;;;;15.17;11.50;;;6.30;99.90;;;;;;5060817;28;40029;-76
2020/12/27 01:28:58;;;;;;;14.90;10.70;;;6.20;99.90;;;;;;5058732;28;39664;-76
2020/12/27 01:31:25;;;;;;;14.77;12.03;;;6.10;99.90;;;;;;5061463;28;39583;-75
2020/12/27 01:33:51;;;;;;;16.90;12.67;;;6.10;99.90;;;;;;5062627;28;37653;-75
2020/12/27 01:36:30;;;;;;;16.43;12.03;;;6.10;99.90;;;;;;5057941;28;41084;-74
2020/12/27 01:38:57;;;;;;;16.43;12.43;;;6.00;99.90;;;;;;5064847;28;39306;-76
2020/12/27 01:41:24;;;;;;;16.77;12.13;;;6.00;99.90;;;;;;5060487;28;39027;-76
2020/12/27 01:44:07;;;;;;;18.87;12.70;;;6.00;99.90;;;;;;5063661;28;37536;-77
2020/12/27 01:46:36;;;;;;;17.43;11.77;;;6.00;99.90;;;;;;5062060;28;49052;-75
2020/12/27 01:49:02;;;;;;;17.40;11.67;;;6.00;99.90;;;;;;5058030;28;39850;-76
2020/12/27 01:51:29;;;;;;;15.70;11.57;;;6.00;99.90;;;;;;5059867;28;47084;-75
2020/12/27 01:53:55;;;;;;;13.43;11.30;;;6.00;99.90;;;;;;5060897;28;38107;-75
2020/12/27 01:56:33;;;;;;;14.30;10.60;;;6.00;99.90;;;;;;5064772;28;38778;-75
2020/12/27 01:59:08;;;;;;;17.03;10.43;;;6.10;99.90;;;;;;5059821;28;40015;-75
2020/12/27 02:01:37;;;;;;;15.63;10.37;;;6.10;99.90;;;;;;5056583;28;49302;-77
2020/12/27 02:04:04;;;;;;;15.10;10.23;;;6.10;99.90;;;;;;5056307;28;37560;-76
2020/12/27 02:06:31;;;;;;;16.67;10.37;;;6.00;99.90;;;;;;5071964;28;39141;-75
2020/12/27 02:08:58;;;;;;;19.37;10.97;;;6.00;99.90;;;;;;5057675;28;39739;-76
2020/12/27 02:11:25;;;;;;;15.90;10.87;;;6.00;99.90;;;;;;5056447;28;39509;-76
2020/12/27 02:13:56;;;;;;;15.50;10.33;;;5.90;99.90;;;;;;5063112;28;36555;-76
2020/12/27 02:16:24;;;;;;;21.30;12.07;;;6.00;99.90;;;;;;5054799;28;40416;-76
2020/12/27 02:18:53;;;;;;;16.53;10.97;;;6.00;99.90;;;;;;5058787;28;38396;-76
2020/12/27 02:21:19;;;;;;;14.40;10.33;;;6.00;99.90;;;;;;5063742;28;38398;-76
2020/12/27 02:23:46;;;;;;;15.73;11.57;;;6.00;99.90;;;;;;5064396;28;37671;-77
2020/12/27 02:26:16;;;;;;;14.57;10.53;;;5.90;99.90;;;;;;5062042;28;39496;-75
2020/12/27 02:28:42;;;;;;;16.13;11.27;;;5.90;99.90;;;;;;5060158;28;39087;-77
2020/12/27 02:31:08;;;;;;;18.70;10.87;;;5.80;99.90;;;;;;5057757;28;38712;-75
2020/12/27 02:33:34;;;;;;;14.87;11.03;;;5.90;99.90;;;;;;5059024;28;34944;-75
2020/12/27 02:36:00;;;;;;;15.77;10.13;;;5.90;99.90;;;;;;5053593;28;39738;-76
2020/12/27 02:38:26;;;;;;;19.17;10.13;;;5.90;99.90;;;;;;5056856;28;38807;-76
2020/12/27 02:40:53;;;;;;;15.30;9.43;;;5.90;99.90;;;;;;5056139;28;40194;-74
2020/12/27 02:43:19;;;;;;;15.70;10.20;;;6.00;99.90;;;;;;5059062;28;38843;-74
2020/12/27 02:45:47;;;;;;;16.60;10.13;;;6.00;99.90;;;;;;5062870;28;39729;-75
2020/12/27 02:48:14;;;;;;;12.37;9.13;;;5.90;99.90;;;;;;5062724;28;40386;-76
2020/12/27 02:50:40;;;;;;;13.30;9.87;;;6.00;99.90;;;;;;5056979;28;39294;-77
2020/12/27 02:53:06;;;;;;;15.53;9.20;;;6.00;99.90;;;;;;5066139;28;36963;-76
2020/12/27 02:55:32;;;;;;;15.33;8.90;;;6.00;99.90;;;;;;5062802;28;39526;-75
2020/12/27 02:57:58;;;;;;;10.20;8.00;;;6.00;99.90;;;;;;5063930;28;40126;-76
2020/12/27 03:00:29;;;;;;;11.10;8.37;;;6.00;99.90;;;;;;5072981;27;39724;-77
2020/12/27 03:02:58;;;;;;;12.00;7.83;;;6.00;99.90;;;;;;5060822;28;37024;-75
2020/12/27 03:05:25;;;;;;;15.00;7.57;;;6.10;99.90;;;;;;5061354;28;38808;-75
2020/12/27 03:07:51;;;;;;;10.10;7.83;;;6.00;99.90;;;;;;5061294;28;37514;-74
2020/12/27 03:10:17;;;;;;;12.07;8.17;;;6.00;99.90;;;;;;5060965;28;37904;-74
2020/12/27 03:12:47;;;;;;;11.17;7.13;;;6.00;99.90;;;;;;5062379;28;35222;-76
2020/12/27 03:15:13;;;;;;;9.90;7.43;;;6.10;99.90;;;;;;5066148;28;38961;-77
2020/12/27 03:17:39;;;;;;;9.77;6.90;;;6.10;99.90;;;;;;5076877;28;38011;-76
2020/12/27 03:20:05;;;;;;;11.53;7.37;;;6.10;99.90;;;;;;5062966;28;40624;-75
2020/12/27 03:22:31;;;;;;;8.90;7.63;;;6.10;99.90;;;;;;5061530;28;37053;-77
2020/12/27 03:24:57;;;;;;;11.27;7.37;;;6.10;99.90;;;;;;5065729;28;38791;-76
2020/12/27 03:27:24;;;;;;;9.87;7.03;;;6.00;99.90;;;;;;5065131;28;39949;-76
2020/12/27 03:29:50;;;;;;;13.47;7.27;;;6.10;99.90;;;;;;5078914;28;38420;-76
2020/12/27 03:32:16;;;;;;;12.63;7.33;;;6.00;99.90;;;;;;5063596;28;37329;-76
2020/12/27 03:34:42;;;;;;;13.83;7.63;;;6.00;99.90;;;;;;5063872;28;39997;-76
2020/12/27 03:37:08;;;;;;;11.67;7.37;;;6.00;99.90;;;;;;5066914;28;39496;-76
2020/12/27 03:39:34;;;;;;;9.93;7.43;;;6.00;99.90;;;;;;5066047;28;38222;-77
2020/12/27 03:42:00;;;;;;;12.60;7.13;;;5.90;99.90;;;;;;5063888;28;37816;-78
2020/12/27 03:44:26;;;;;;;11.63;7.33;;;5.90;99.90;;;;;;5055991;28;41042;-78
2020/12/27 03:46:52;;;;;;;8.93;6.87;;;6.00;99.90;;;;;;5060258;28;38813;-76
2020/12/27 03:49:18;;;;;;;10.60;7.20;;;6.00;99.90;;;;;;5065372;28;38084;-76
2020/12/27 03:51:44;;;;;;;14.87;7.90;;;6.00;99.90;;;;;;5066119;28;37182;-77
2020/12/27 03:54:10;;;;;;;7.83;5.80;;;6.00;99.90;;;;;;5067394;28;38985;-76
2020/12/27 03:56:36;;;;;;;10.13;6.57;;;6.00;99.90;;;;;;5068302;28;39047;-77
2020/12/27 03:59:03;;;;;;;12.57;6.03;;;6.00;99.90;;;;;;5079798;28;20115;-77
2020/12/27 04:01:31;;;;;;;8.23;6.03;;;6.10;99.90;;;;;;5068860;28;36403;-75
2020/12/27 04:03:57;;;;;;;8.60;5.93;;;6.10;99.90;;;;;;5065337;28;38672;-76
2020/12/27 04:06:23;;;;;;;8.83;6.03;;;6.10;99.90;;;;;;5064879;28;40643;-76
2020/12/27 04:08:49;;;;;;;8.33;5.93;;;6.10;99.90;;;;;;5064591;28;39578;-76
2020/12/27 04:11:15;;;;;;;6.93;5.83;;;6.20;99.90;;;;;;5060536;28;39201;-76
2020/12/27 04:13:41;;;;;;;9.67;6.00;;;6.10;99.90;;;;;;5057321;28;40007;-75
2020/12/27 04:16:08;;;;;;;8.40;5.77;;;6.20;99.90;;;;;;5063560;28;38594;-77
2020/12/27 04:18:34;;;;;;;8.27;5.47;;;6.20;99.90;;;;;;5063744;28;40086;-77
2020/12/27 04:21:00;;;;;;;11.93;5.90;;;6.20;99.90;;;;;;5065484;28;37592;-76
2020/12/27 04:23:26;;;;;;;9.27;5.93;;;6.20;99.90;;;;;;5069302;28;40696;-77
2020/12/27 04:25:52;;;;;;;9.43;5.57;;;6.20;99.90;;;;;;5065249;28;40293;-75
2020/12/27 04:28:18;;;;;;;6.20;5.20;;;6.30;99.90;;;;;;5063681;28;37469;-76
2020/12/27 04:30:44;;;;;;;10.23;5.10;;;6.20;99.90;;;;;;5066369;28;37337;-77
2020/12/27 04:33:11;;;;;;;8.20;4.70;;;6.30;99.90;;;;;;5063445;28;38876;-75
2020/12/27 04:35:37;;;;;;;6.43;4.27;;;6.30;99.90;;;;;;5058573;28;38710;-76
2020/12/27 04:38:03;;;;;;;7.57;4.93;;;6.40;99.90;;;;;;5066270;28;37494;-76
2020/12/27 04:40:29;;;;;;;6.67;4.20;;;6.40;99.90;;;;;;5079182;28;36578;-76
2020/12/27 04:42:56;;;;;;;5.67;4.30;;;6.40;99.90;;;;;;5082170;28;37876;-76
2020/12/27 04:45:22;;;;;;;4.93;3.57;;;6.40;99.90;;;;;;5065462;28;39432;-75
2020/12/27 04:47:49;;;;;;;6.83;3.73;;;6.40;99.90;;;;;;5081484;28;39966;-78
2020/12/27 04:50:16;;;;;;;6.87;3.37;;;6.50;99.90;;;;;;5064322;28;35797;-76
2020/12/27 04:52:42;;;;;;;6.97;3.50;;;6.50;99.90;;;;;;5072306;28;39708;-76
2020/12/27 04:55:08;;;;;;;7.20;3.10;;;6.50;99.90;;;;;;5061025;28;40747;-76
2020/12/27 04:57:34;;;;;;;7.33;3.60;;;6.50;99.90;;;;;;5062061;28;39946;-76
2020/12/27 05:00:05;;;;;;;3.67;2.80;;;6.50;99.90;;;;;;5062948;28;37611;-76
2020/12/27 05:02:31;;;;;;;5.27;2.93;;;6.50;99.90;;;;;;5060812;28;38696;-77
2020/12/27 05:05:00;;;;;;;5.87;2.73;;;6.50;99.90;;;;;;5071296;28;39571;-76
2020/12/27 05:07:27;;;;;;;4.57;2.93;;;6.50;99.90;;;;;;5064002;28;39475;-76
2020/12/27 05:09:53;;;;;;;5.57;3.20;;;6.50;99.90;;;;;;5081148;28;37782;-76
2020/12/27 05:12:19;;;;;;;5.67;2.63;;;6.50;99.90;;;;;;5074521;28;40418;-77
2020/12/27 05:14:46;;;;;;;4.27;2.30;;;6.50;99.90;;;;;;5057620;28;36826;-76
2020/12/27 05:17:14;;;;;;;2.83;2.40;;;6.50;99.90;;;;;;5056285;28;38170;-77
2020/12/27 05:19:42;;;;;;;4.13;2.10;;;6.60;99.90;;;;;;5063202;28;37724;-76
2020/12/27 05:22:11;;;;;;;2.43;2.20;;;6.50;99.90;;;;;;5061162;28;39766;-76
2020/12/27 05:24:38;;;;;;;5.03;1.90;;;6.60;99.90;;;;;;5060101;28;38885;-75
2020/12/27 05:27:06;;;;;;;2.63;1.67;;;6.60;99.90;;;;;;5059325;28;38672;-76
2020/12/27 05:29:34;;;;;;;1.70;1.60;;;6.60;99.90;;;;;;5062603;28;37607;-75
2020/12/27 05:32:01;;;;;;;2.10;1.70;;;6.60;99.90;;;;;;5072532;28;37887;-77
2020/12/27 05:34:28;;;;;;;1.90;1.67;;;6.60;99.90;;;;;;5059501;28;48644;-76
2020/12/27 05:37:03;;;;;;;1.70;1.60;;;6.70;99.90;;;;;;5062742;28;39734;-75
2020/12/27 05:39:30;;;;;;;6.67;1.57;;;6.70;99.90;;;;;;5061475;28;47104;-76
2020/12/27 05:42:01;;;;;;;2.17;0.97;;;6.80;99.90;;;;;;5062179;28;39773;-76
2020/12/27 05:44:27;;;;;;;6.10;1.20;;;6.70;99.90;;;;;;5073084;28;47432;-76
2020/12/27 05:46:56;;;;;;;2.43;1.43;;;6.70;99.90;;;;;;5082188;28;38831;-75
2020/12/27 05:49:23;;;;;;;1.20;0.90;;;6.70;99.90;;;;;;5055125;28;37895;-77
2020/12/27 05:51:57;;;;;;;2.10;1.17;;;6.80;99.90;;;;;;5059774;28;39904;-76
2020/12/27 05:54:47;;;;;;;1.10;1.00;;;6.70;99.90;;;;;;5071421;28;39419;-75
2020/12/27 05:57:16;;;;;;;2.57;1.00;;;6.70;99.90;;;;;;5049766;28;40239;-74
2020/12/27 05:59:45;;;;;;;1.10;1.00;;;6.70;99.90;;;;;;5080244;28;38267;-75
2020/12/27 06:02:34;;;;;;;1.20;1.00;;;6.70;99.90;;;;;;5066983;28;38187;-75
2020/12/27 06:05:12;;;;;;;3.87;0.93;;;6.70;99.90;;;;;;5070936;27;39490;-76
2020/12/27 06:07:46;;;;;;;1.50;1.03;;;6.60;99.90;;;;;;5074020;28;47432;-76
2020/12/27 06:10:21;;;;;;;2.07;1.07;;;6.70;99.90;;;;;;5065399;28;38112;-75
2020/12/27 06:13:12;;;;;;;3.37;0.80;;;6.60;99.90;;;;;;5054112;28;39128;-74
2020/12/27 06:15:46;;;;;;;1.43;0.70;;;6.60;99.90;;;;;;5061162;28;47300;-75
2020/12/27 06:18:14;;;;;;;2.97;0.77;;;6.70;99.90;;;;;;5063884;28;39551;-76
2020/12/27 06:20:42;;;;;;;0.87;0.73;;;6.70;99.90;;;;;;5066385;28;38726;-76
2020/12/27 06:23:10;;;;;;;2.30;0.73;;;6.70;99.90;;;;;;5082205;28;39066;-75
2020/12/27 06:25:37;;;;;;;1.30;0.73;;;6.80;99.90;;;;;;5063343;28;39947;-76
2020/12/27 06:28:05;;;;;;;1.77;0.60;;;6.70;99.90;;;;;;5070000;27;37158;-76
2020/12/27 06:30:40;;;;;;;2.67;0.67;;;6.70;99.90;;;;;;5063241;28;36982;-75
2020/12/27 06:33:10;;;;;;;2.60;0.60;;;6.60;99.90;;;;;;5079653;28;39328;-77
2020/12/27 06:35:37;;;;;;;0.40;0.40;;;6.70;99.90;;;;;;5077701;28;39496;-77
2020/12/27 06:38:16;;;;;;;2.33;0.97;;;6.70;99.90;;;;;;5069903;28;40197;-77
2020/12/27 06:40:44;;;;;;;1.63;0.40;;;6.60;99.90;;;;;;5063570;28;38020;-76
2020/12/27 06:43:22;;;;;;;1.37;0.40;;;6.70;99.90;;;;;;5069056;28;38351;-76
2020/12/27 06:45:49;;;;;;;1.03;0.37;;;6.70;99.90;;;;;;5067277;28;38339;-74
2020/12/27 06:48:35;;;;;;;0.87;0.57;;;6.70;99.90;;;;;;5061794;27;38983;-76
2020/12/27 06:51:02;;;;;;;0.90;0.50;;;6.70;99.90;;;;;;5063349;28;39427;-76
2020/12/27 06:53:38;;;;;;;2.60;0.80;;;6.80;99.90;;;;;;5073145;28;40495;-76
2020/12/27 06:56:04;;;;;;;0.90;0.57;;;6.80;99.90;;;;;;5065035;28;38885;-76
2020/12/27 06:58:31;;;;;;;1.90;0.60;;;6.70;99.90;;;;;;5063691;28;39457;-76
2020/12/27 07:01:15;;;;;;;0.70;0.47;;;6.70;99.90;;;;;;5068640;28;36185;-78
2020/12/27 07:03:43;;;;;;;3.67;0.70;;;6.70;99.90;;;;;;5059522;28;47587;-76
2020/12/27 07:06:39;;;;;;;1.37;0.30;;;6.70;99.90;;;;;;5065464;28;37704;-76
2020/12/27 07:09:05;;;;;;;0.50;0.50;;;6.80;99.90;;;;;;5073482;28;37135;-77
2020/12/27 07:11:32;;;;;;;0.80;0.50;;;6.70;99.90;;;;;;5065968;27;36675;-76
2020/12/27 07:13:58;;;;;;;3.60;0.67;;;6.80;99.90;;;;;;5079791;27;39221;-76
2020/12/27 07:16:54;;;;;;;0.70;0.53;;;6.70;99.90;;;;;;5064493;28;39483;-75
2020/12/27 07:19:24;;;;;;;2.73;0.30;;;6.80;99.90;;;;;;5052715;28;39099;-76
2020/12/27 07:21:50;;;;;;;3.87;0.60;;;6.70;99.90;;;;;;5080377;28;37808;-77
2020/12/27 07:24:22;;;;;;;0.80;0.40;;;6.80;99.90;;;;;;5061176;28;38032;-75
2020/12/27 07:26:49;;;;;;;1.23;0.50;;;6.80;99.90;;;;;;5069605;28;39699;-75
2020/12/27 07:29:19;;;;;;;1.13;0.50;;;6.90;99.90;;;;;;5063658;28;38649;-75
2020/12/27 07:31:46;;;;;;;0.80;0.40;;;6.90;99.90;;;;;;5064479;27;38559;-76
2020/12/27 07:34:14;;;;;;;2.53;0.43;;;6.90;99.90;;;;;;5061822;28;39162;-76
2020/12/27 07:36:41;;;;;;;3.73;0.50;;;6.80;99.90;;;;;;5064713;28;40135;-75
2020/12/27 07:39:09;;;;;;;1.20;0.40;;;6.90;99.90;;;;;;5065734;28;39225;-77
2020/12/27 07:41:43;;;;;;;0.47;0.30;;;7.00;99.90;;;;;;5062262;28;36637;-77
2020/12/27 07:44:17;;;;;;;0.30;0.30;;;7.00;99.90;;;;;;5068810;28;39620;-76
2020/12/27 07:46:44;;;;;;;1.63;0.70;;;7.00;99.90;;;;;;5063824;28;38828;-75
2020/12/27 07:49:11;;;;;;;3.80;0.77;;;6.90;99.90;;;;;;5062617;28;37811;-78
2020/12/27 07:51:38;;;;;;;0.93;0.40;;;6.90;99.90;;;;;;5079425;28;36819;-77
2020/12/27 07:54:05;;;;;;;4.10;0.53;;;7.00;99.90;;;;;;5067567;28;39201;-78
2020/12/27 07:56:33;;;;;;;1.60;0.50;;;6.90;99.90;;;;;;5065009;28;39445;-77
2020/12/27 07:59:00;;;;;;;0.97;0.53;;;6.90;99.90;;;;;;5062347;28;37496;-78
2020/12/27 08:01:34;;;;;;;1.67;0.70;;;6.90;99.90;;;;;;5079541;28;35054;-77
2020/12/27 08:04:05;;;;;;;1.10;0.97;;;7.00;99.90;;;;;;5060962;28;37865;-77
2020/12/27 08:06:36;;;;;;;1.10;0.40;;;6.90;99.90;;;;;;5062273;28;47555;-76
2020/12/27 08:09:09;;;;;;;0.60;0.40;;;7.00;99.90;;;;;;5078169;28;39055;-77
2020/12/27 08:11:39;;;;;;;0.95;0.40;;;7.00;99.90;;;;;;5064314;28;37967;-77
2020/12/27 08:14:08;;;;;;;0.67;0.47;;;7.00;99.90;;;;;;5063373;28;38905;-78
2020/12/27 08:16:42;;;;;;;0.77;0.43;;;7.00;99.90;;;;;;5066730;28;38742;-78
2020/12/27 08:19:11;;;;;;;1.17;0.50;;;7.00;99.90;;;;;;5060873;28;40603;-78
2020/12/27 08:21:38;;;;;;;1.23;0.40;;;7.00;99.90;;;;;;5065838;28;38596;-78
2020/12/27 08:24:07;;;;;;;0.47;0.43;;;7.00;99.90;;;;;;5061450;28;39691;-78
2020/12/27 08:26:39;;;;;;;1.03;0.50;;;7.00;99.90;;;;;;5061238;28;40492;-77
2020/12/27 08:29:08;;;;;;;0.33;0.30;;;7.00;99.90;;;;;;5066114;28;40912;-78
2020/12/27 08:31:34;;;;;;;0.40;0.40;;;7.00;99.90;;;;;;5063355;28;37285;-78
2020/12/27 08:34:11;;;;;;;1.37;0.50;;;7.00;99.90;;;;;;5058362;28;38802;-77
2020/12/27 08:36:39;;;;;;;1.47;0.30;;;7.20;99.90;;;;;;5061806;28;47390;-76
2020/12/27 08:39:35;;;;;;;1.83;0.37;;;7.20;99.90;;;;;;5062128;28;39135;-77
2020/12/27 08:42:10;;;;;;;0.60;0.30;;;7.20;99.90;;;;;;5064185;28;37126;-77
2020/12/27 08:44:48;;;;;;;1.00;0.27;;;7.20;99.90;;;;;;5058285;28;39893;-77
2020/12/27 08:47:34;;;;;;;1.63;0.43;;;7.30;99.90;;;;;;5059462;28;39516;-77
2020/12/27 08:50:05;;;;;;;1.63;0.30;;;7.30;99.90;;;;;;5061028;28;38778;-77
2020/12/27 08:52:32;;;;;;;1.60;0.30;;;7.20;99.90;;;;;;5058321;28;47202;-78
2020/12/27 08:55:01;;;;;;;1.97;0.50;;;7.20;99.90;;;;;;5058003;28;40812;-76
2020/12/27 08:57:28;;;;;;;0.90;0.30;;;7.20;99.90;;;;;;5063040;28;47371;-76
2020/12/27 09:00:13;;;;;;;3.13;0.40;;;7.20;99.90;;;;;;5066938;28;39323;-76
2020/12/27 09:02:40;;;;;;;0.30;0.30;;;7.20;99.90;;;;;;5060935;28;47621;-77
2020/12/27 09:05:13;;;;;;;1.43;0.40;;;7.20;99.90;;;;;;5059682;28;39781;-77
2020/12/27 09:07:44;;;;;;;1.67;0.40;;;7.30;99.90;;;;;;5071557;28;38695;-76
2020/12/27 09:10:13;;;;;;;0.50;0.50;;;7.40;99.90;;;;;;5086216;28;38907;-76
2020/12/27 09:12:59;;;;;;;1.83;0.37;;;7.40;99.90;;;;;;5082685;28;35581;-76
2020/12/27 09:15:30;;;;;;;1.70;0.50;;;7.40;99.90;;;;;;5059895;28;38734;-78
2020/12/27 09:17:59;;;;;;;2.53;0.20;;;7.50;99.90;;;;;;5062228;28;39006;-76
2020/12/27 09:20:25;;;;;;;1.40;0.33;;;7.50;99.90;;;;;;5063129;28;39369;-76
2020/12/27 09:22:52;;;;;;;0.47;0.30;;;7.60;99.90;;;;;;5065871;28;37921;-76
2020/12/27 09:25:20;;;;;;;1.57;0.40;;;7.60;99.90;;;;;;5067848;28;39966;-77
2020/12/27 09:27:47;;;;;;;0.40;0.33;;;7.60;99.90;;;;;;5090423;28;37764;-77
2020/12/27 09:30:16;;;;;;;0.93;0.50;;;7.60;99.90;;;;;;5058203;28;37542;-76
2020/12/27 09:32:42;;;;;;;0.70;0.30;;;7.70;99.90;;;;;;5079759;28;39348;-76
2020/12/27 09:35:15;;;;;;;0.43;0.30;;;7.60;99.90;;;;;;5060342;28;40376;-76
2020/12/27 09:37:41;;;;;;;0.93;0.47;;;7.60;99.90;;;;;;5079798;28;37691;-76
2020/12/27 09:40:07;;;;;;;2.37;0.40;;;7.60;99.90;;;;;;5069395;28;37777;-77
2020/12/27 09:42:33;;;;;;;0.40;0.20;;;7.60;99.90;;;;;;5064580;28;38323;-77
2020/12/27 09:45:25;;;;;;;1.20;0.60;;;7.70;99.90;;;;;;5067110;28;38791;-78
2020/12/27 09:47:53;;;;;;;0.63;0.20;;;7.70;99.90;;;;;;5070445;28;48207;-78
2020/12/27 09:50:31;;;;;;;0.20;0.20;;;7.70;99.90;;;;;;5089207;28;37562;-78
2020/12/27 09:52:58;;;;;;;0.20;0.20;;;7.70;99.90;;;;;;5072974;28;36806;-79
2020/12/27 09:55:24;;;;;;;0.50;0.37;;;7.60;99.90;;;;;;5069626;28;38776;-76
2020/12/27 09:57:51;;;;;;;0.30;0.30;;;7.60;99.90;;;;;;5075213;28;37778;-77
2020/12/27 10:00:17;;;;;;;0.67;0.10;;;7.60;99.90;;;;;;5073007;28;39825;-78
2020/12/27 10:02:43;;;;;;;1.00;0.20;;;7.60;99.90;;;;;;5069123;28;37012;-78
2020/12/27 10:05:10;;;;;;;0.73;0.20;;;7.60;99.90;;;;;;5066125;28;39585;-77
2020/12/27 10:07:37;;;;;;;0.93;0.30;;;7.50;99.90;;;;;;5069251;28;38942;-78
2020/12/27 10:10:08;;;;;;;0.67;0.50;;;7.50;99.90;;;;;;5067510;28;40634;-78
2020/12/27 10:12:35;;;;;;;1.53;0.40;;;7.50;99.90;;;;;;5073794;28;37216;-78
2020/12/27 10:15:07;;;;;;;0.30;0.30;;;7.50;99.90;;;;;;5073698;27;39453;-79
2020/12/27 10:17:34;;;;;;;0.53;0.40;;;7.50;99.90;;;;;;5084699;28;39212;-77
2020/12/27 10:20:00;;;;;;;2.37;0.70;;;7.50;99.90;;;;;;5074349;28;37971;-77
2020/12/27 10:22:28;;;;;;;2.33;0.30;;;7.60;99.90;;;;;;5067406;28;36951;-77
2020/12/27 10:24:54;;;;;;;0.83;0.50;;;7.50;99.90;;;;;;5074462;28;38904;-79
2020/12/27 10:27:20;;;;;;;0.20;0.20;;;7.60;99.90;;;;;;5070641;28;39079;-78
2020/12/27 10:29:47;;;;;;;0.47;0.30;;;7.60;99.90;;;;;;5068992;28;40216;-78
2020/12/27 10:32:13;;;;;;;0.27;0.10;;;7.70;99.90;;;;;;5075446;28;38104;-78
2020/12/27 10:34:39;;;;;;;0.60;0.30;;;7.70;99.90;;;;;;5090182;28;37932;-79
2020/12/27 10:37:05;;;;;;;0.20;0.20;;;7.70;99.90;;;;;;5074431;28;38174;-78
2020/12/27 10:39:32;;;;;;;0.60;0.20;;;7.70;99.90;;;;;;5075538;28;39407;-78
2020/12/27 10:41:58;;;;;;;1.70;0.47;;;7.70;99.90;;;;;;5077044;28;36215;-78
2020/12/27 10:44:26;;;;;;;2.00;0.27;;;7.70;99.90;;;;;;5076908;28;38889;-78
2020/12/27 10:46:53;;;;;;;0.20;0.20;;;7.70;99.90;;;;;;5074960;28;40726;-77
2020/12/27 10:49:21;;;;;;;0.87;0.23;;;7.80;99.90;;;;;;5077087;28;39267;-77
2020/12/27 10:51:47;;;;;;;2.00;0.50;;;7.80;99.90;;;;;;5072410;28;37043;-78
2020/12/27 10:54:13;;;;;;;1.60;0.20;;;7.70;99.90;;;;;;5074536;28;38766;-77
2020/12/27 10:56:42;;;;;;;1.20;0.30;;;7.70;99.90;;;;;;5078209;28;37595;-78
2020/12/27 10:59:09;;;;;;;1.10;0.30;;;7.70;99.90;;;;;;5076020;28;39083;-78
2020/12/27 11:01:35;;;;;;;2.00;0.40;;;7.70;99.90;;;;;;5068577;28;38758;-79
2020/12/27 11:04:02;;;;;;;1.50;0.50;;;7.70;99.90;;;;;;5085697;28;39834;-78
2020/12/27 11:06:32;;;;;;;0.73;0.30;;;7.70;99.90;;;;;;5071274;28;47334;-78
2020/12/27 11:08:59;;;;;;;1.83;0.40;;;7.70;99.90;;;;;;5065479;28;38048;-77
2020/12/27 11:11:26;;;;;;;2.83;0.43;;;7.60;99.90;;;;;;5067643;28;37431;-78
2020/12/27 11:13:52;;;;;;;1.47;0.50;;;7.60;99.90;;;;;;5070221;28;38802;-79
2020/12/27 11:16:19;;;;;;;1.00;0.50;;;7.60;99.90;;;;;;5065617;28;39180;-79
2020/12/27 11:18:45;;;;;;;1.70;0.50;;;7.50;99.90;;;;;;5072347;28;40004;-77
2020/12/27 11:21:11;;;;;;;0.30;0.20;;;7.50;99.90;;;;;;5063720;28;37314;-78
2020/12/27 11:23:37;;;;;;;4.53;0.70;;;7.50;99.90;;;;;;5075223;28;39621;-79
2020/12/27 11:26:03;;;;;;;2.50;0.63;;;7.40;99.90;;;;;;5067129;28;38510;-78
2020/12/27 11:28:30;;;;;;;1.27;0.60;;;7.40;99.90;;;;;;5077802;28;38629;-80
2020/12/27 11:30:57;;;;;;;1.57;0.57;;;7.40;99.90;;;;;;5092980;28;36482;-82
2020/12/27 11:33:26;;;;;;;2.83;0.50;;;7.40;99.90;;;;;;5078762;28;38876;-79
2020/12/27 11:35:52;;;;;;;2.50;0.57;;;7.40;99.90;;;;;;5077800;28;39034;-81
2020/12/27 11:38:19;;;;;;;2.67;0.30;;;7.40;99.90;;;;;;5074405;28;37869;-79
2020/12/27 11:40:45;;;;;;;4.03;0.90;;;7.40;99.90;;;;;;5078680;28;36819;-79
2020/12/27 11:43:22;;;;;;;3.67;0.70;;;7.40;99.90;;;;;;5078400;28;37871;-81
2020/12/27 11:45:49;;;;;;;2.60;0.73;;;7.30;99.90;;;;;;5093402;28;37851;-82
2020/12/27 11:48:15;;;;;;;4.83;0.67;;;7.30;99.90;;;;;;5086625;28;39466;-80
2020/12/27 11:50:43;;;;;;;4.00;0.70;;;7.30;99.90;;;;;;5077409;28;37469;-83
2020/12/27 11:53:10;;;;;;;5.43;0.77;;;7.30;99.90;;;;;;5084799;28;38854;-81
2020/12/27 11:55:38;;;;;;;3.10;0.70;;;7.30;99.90;;;;;;5082707;28;39294;-81
2020/12/27 11:58:12;;;;;;;4.23;0.80;;;7.20;99.90;;;;;;5078177;28;38871;-82
2020/12/27 12:00:39;;;;;;;6.17;1.53;;;7.20;99.90;;;;;;5091684;28;36709;-83
2020/12/27 12:03:30;;;;;;;5.57;0.63;;;7.20;99.90;;;;;;5093042;28;38868;-84
2020/12/27 12:06:16;;;;;;;8.00;1.37;;;7.20;99.90;;;;;;5082338;28;39312;-82
2020/12/27 12:08:45;;;;;;;7.80;1.00;;;7.20;99.90;;;;;;5094899;28;49175;-82
2020/12/27 12:11:16;;;;;;;3.67;1.07;;;7.20;99.90;;;;;;5089288;28;37877;-85
2020/12/27 12:13:50;;;;;;;5.20;1.00;;;7.20;99.90;;;;;;5077478;28;38323;-81
2020/12/27 12:16:22;;;;;;;3.33;0.70;;;7.20;99.90;;;;;;5070372;28;37734;-80
2020/12/27 12:18:48;;;;;;;7.90;1.17;;;7.20;99.90;;;;;;5076170;28;39310;-82
2020/12/27 12:21:16;;;;;;;3.60;1.10;;;7.20;99.90;;;;;;5083263;28;37261;-82
2020/12/27 12:23:43;;;;;;;4.40;0.87;;;7.20;99.90;;;;;;5087088;28;38282;-82
2020/12/27 12:26:16;;;;;;;3.60;0.87;;;7.20;99.90;;;;;;5077805;28;38685;-82
2020/12/27 12:28:42;;;;;;;;;;;7.20;99.90;;;;;;5109132;27;38228;-80
2020/12/27 12:31:13;;;;;;;2.73;0.97;;;7.20;99.90;;;;;;5085568;28;36889;-81
2020/12/27 12:33:40;;;;;;;3.50;0.80;;;7.10;99.90;;;;;;5102185;28;38346;-80
2020/12/27 12:36:06;;;;;;;5.30;1.87;;;7.10;99.90;;;;;;5093172;22;38927;-77
2020/12/27 12:38:33;;;;;;;3.60;0.80;;;7.00;99.90;;;;;;5062201;28;38462;-77
2020/12/27 12:40:59;;;;;;;4.13;0.83;;;7.00;99.90;;;;;;5055904;28;36797;-77
2020/12/27 12:43:30;;;;;;;3.83;0.50;;;6.80;99.90;;;;;;5054175;28;38510;-77
2020/12/27 12:45:58;;;;;;;2.83;0.73;;;6.80;99.90;;;;;;5055215;28;39678;-77
2020/12/27 12:48:24;;;;;;;4.00;0.60;;;6.70;99.90;;;;;;5055820;28;38223;-79
2020/12/27 12:50:50;;;;;;;4.70;0.70;;;6.70;99.90;;;;;;5056006;28;36585;-76
2020/12/27 12:53:17;;;;;;;4.83;0.50;;;6.70;99.90;;;;;;5070042;28;39332;-77
2020/12/27 12:55:46;;;;;;;8.43;0.77;;;6.60;99.90;;;;;;5062279;28;37585;-78
2020/12/27 12:58:12;;;;;;;2.27;1.03;;;6.70;99.90;;;;;;5052654;28;37709;-78
2020/12/27 13:00:38;;;;;;;3.50;0.47;;;6.60;99.90;;;;;;5063088;28;36528;-76